Viking Amber — 9V7985 — position and weather

sailwx.info

Track history (hours):
 
Tides and Currents Weather Stations Pressure Air Temp Water Temp Dewpoint Dewpoint Depression Visibility Wind Speed Wind Dir Waves Ship Positions

Viking Amber

Last reported at 2014-Jul-30 18:32 UTC. Time now 2014-Jul-30 19:24 UTC.
Position N 34°47' E 139°35'.

Length 167 m; draft 7.3 m.

Type: Other ship. MMSI: 563255000.

Date/timePositionNaut miles runAvg speedWind from/ knotsBaromVisibWave heightAir tempDewpointWater temp
2014-Jul-30 18:32N 34°47' E 139°35'234 6.8
2014-Jul-29 08:06N 33°53' E 134°60'814.5
2014-Jul-29 07:33N 34°01' E 134°59'1111.4
2014-Jul-29 06:33N 34°12' E 134°57'1313.1
2014-Jul-29 05:33N 34°24' E 135°04'1413.8
2014-Jul-29 04:33N 34°31' E 135°18'4 3.6
2014-Jul-29 03:29N 34°31' E 135°23'0 0.0
2014-Jul-29 02:29N 34°31' E 135°23'0 0.0
2014-Jul-29 01:29N 34°31' E 135°23'0 0.0
2014-Jul-29 00:29N 34°31' E 135°23'0 0.0
2014-Jul-28 23:23N 34°31' E 135°23'0 0.0
2014-Jul-28 22:23N 34°31' E 135°23'0 0.0
2014-Jul-28 21:11N 34°31' E 135°23'0 0.0
2014-Jul-28 20:17N 34°31' E 135°23'0 0.0
2014-Jul-28 19:23N 34°31' E 135°23'0 0.0
2014-Jul-28 18:29N 34°31' E 135°23'0 0.0
2014-Jul-28 17:23N 34°31' E 135°23'0 0.0
2014-Jul-28 16:29N 34°31' E 135°23'0 0.0
2014-Jul-28 15:29N 34°31' E 135°23'0 0.0
2014-Jul-28 14:29N 34°31' E 135°23'0 0.0
2014-Jul-28 13:11N 34°31' E 135°23'0 0.0
2014-Jul-28 12:29N 34°31' E 135°23'0 0.0
2014-Jul-28 11:29N 34°31' E 135°23'0 0.0
2014-Jul-28 10:17N 34°31' E 135°23'0 0.0
2014-Jul-28 09:29N 34°31' E 135°23'0 0.0
2014-Jul-28 08:34N 34°31' E 135°23'7 6.8
2014-Jul-28 07:34N 34°38' E 135°24'0 0.0
2014-Jul-28 06:33N 34°38' E 135°24'0 0.0
2014-Jul-28 05:33N 34°38' E 135°24'0 0.0
2014-Jul-28 04:27N 34°38' E 135°24'0 0.0
2014-Jul-28 03:33N 34°38' E 135°24'0 0.0
2014-Jul-28 02:21N 34°38' E 135°24'0 0.0
2014-Jul-28 01:27N 34°38' E 135°24'1 1.0
2014-Jul-28 00:33N 34°38' E 135°23'1312.7
2014-Jul-27 23:33N 34°30' E 135°11'1616.0
2014-Jul-27 22:32N 34°17' E 134°59'1111.3
2014-Jul-27 21:33N 34°06' E 134°60'  
2014-Jul-25 05:08N 33°48' E 130°14'813.6
2014-Jul-25 04:34N 33°40' E 130°16'7 6.9
2014-Jul-25 03:32N 33°40' E 130°25'0 0.0
2014-Jul-25 02:32N 33°40' E 130°25'0 0.0
2014-Jul-25 01:32N 33°40' E 130°25'0 0.0
2014-Jul-25 00:32N 33°40' E 130°25'0 0.0
2014-Jul-24 23:31N 33°40' E 130°25'0 0.2
2014-Jul-24 22:32N 33°39' E 130°24'6 6.4
2014-Jul-24 21:33N 33°39' E 130°17'5 5.2
2014-Jul-24 20:33N 33°44' E 130°15'5 4.6
2014-Jul-24 19:32N 33°48' E 130°11'51212.4
2014-Jul-23 02:17N 34°56' E 119°57'1013.4
2014-Jul-23 01:33N 34°51' E 119°47'1110.7
2014-Jul-23 00:33N 34°46' E 119°35'7 7.2
2014-Jul-22 23:33N 34°45' E 119°26'2 2.2
2014-Jul-22 22:33N 34°45' E 119°24'0 0.0
2014-Jul-22 21:33N 34°45' E 119°24'0 0.0
2014-Jul-22 20:33N 34°45' E 119°24'0 0.0
2014-Jul-22 19:33N 34°45' E 119°24'0 0.0
2014-Jul-22 18:33N 34°45' E 119°24'0 0.0
2014-Jul-22 17:33N 34°45' E 119°24'0 0.0
2014-Jul-22 16:33N 34°45' E 119°24'0 0.0
2014-Jul-22 15:33N 34°45' E 119°24'0 0.0
2014-Jul-22 14:33N 34°45' E 119°24'0 0.2
2014-Jul-22 13:33N 34°45' E 119°24'9 8.5
2014-Jul-22 12:33N 34°46' E 119°34'1110.2
2014-Jul-22 11:26N 34°52' E 119°46'3 1.3
2014-Jul-22 09:21N 34°54' E 119°48'0 0.2
2014-Jul-22 08:33N 34°54' E 119°48'0 0.0
2014-Jul-22 05:33N 34°54' E 119°48'0 0.0
2014-Jul-22 03:21N 34°54' E 119°48'0 0.0
2014-Jul-21 19:33N 34°54' E 119°48'0 0.0
2014-Jul-21 17:15N 34°54' E 119°48'0 0.0
2014-Jul-21 16:09N 34°54' E 119°48'0 0.0
2014-Jul-21 15:27N 34°54' E 119°48'0 0.1
2014-Jul-21 14:27N 34°54' E 119°48'0 0.0
2014-Jul-21 12:33N 34°54' E 119°48'0 0.0
2014-Jul-21 10:09N 34°54' E 119°48'0 0.0
2014-Jul-21 09:15N 34°54' E 119°48'0 0.0
2014-Jul-21 08:33N 34°54' E 119°48'0 0.0
2014-Jul-21 07:33N 34°54' E 119°48'0 0.0
2014-Jul-20 23:21N 34°54' E 119°48'0 0.0
2014-Jul-20 20:33N 34°54' E 119°48'0 0.0
2014-Jul-20 19:33N 34°54' E 119°48'  
Track history (hours):
 
Tides and Currents Weather Stations Pressure Air Temp Water Temp Dewpoint Dewpoint Depression Visibility Wind Speed Wind Dir Waves Ship Positions

Viking Amber

Last reported at 2014-Jul-30 18:32 UTC. Time now 2014-Jul-30 19:24 UTC.
Position N 34°47' E 139°35'.

Length 167 m; draft 7.3 m.

Type: Other ship. MMSI: 563255000.

Date/timePositionNaut miles runAvg speedWind from/ knotsBaromVisibWave heightAir tempDewpointWater temp
2014-Jul-30 18:32N 34°47' E 139°35'234 6.8
2014-Jul-29 08:06N 33°53' E 134°60'814.5
2014-Jul-29 07:33N 34°01' E 134°59'1111.4
2014-Jul-29 06:33N 34°12' E 134°57'1313.1
2014-Jul-29 05:33N 34°24' E 135°04'1413.8
2014-Jul-29 04:33N 34°31' E 135°18'4 3.6
2014-Jul-29 03:29N 34°31' E 135°23'0 0.0
2014-Jul-29 02:29N 34°31' E 135°23'0 0.0
2014-Jul-29 01:29N 34°31' E 135°23'0 0.0
2014-Jul-29 00:29N 34°31' E 135°23'0 0.0
2014-Jul-28 23:23N 34°31' E 135°23'0 0.0
2014-Jul-28 22:23N 34°31' E 135°23'0 0.0
2014-Jul-28 21:11N 34°31' E 135°23'0 0.0
2014-Jul-28 20:17N 34°31' E 135°23'0 0.0
2014-Jul-28 19:23N 34°31' E 135°23'0 0.0
2014-Jul-28 18:29N 34°31' E 135°23'0 0.0
2014-Jul-28 17:23N 34°31' E 135°23'0 0.0
2014-Jul-28 16:29N 34°31' E 135°23'0 0.0
2014-Jul-28 15:29N 34°31' E 135°23'0 0.0
2014-Jul-28 14:29N 34°31' E 135°23'0 0.0
2014-Jul-28 13:11N 34°31' E 135°23'0 0.0
2014-Jul-28 12:29N 34°31' E 135°23'0 0.0
2014-Jul-28 11:29N 34°31' E 135°23'0 0.0
2014-Jul-28 10:17N 34°31' E 135°23'0 0.0
2014-Jul-28 09:29N 34°31' E 135°23'0 0.0
2014-Jul-28 08:34N 34°31' E 135°23'7 6.8
2014-Jul-28 07:34N 34°38' E 135°24'0 0.0
2014-Jul-28 06:33N 34°38' E 135°24'0 0.0
2014-Jul-28 05:33N 34°38' E 135°24'0 0.0
2014-Jul-28 04:27N 34°38' E 135°24'0 0.0
2014-Jul-28 03:33N 34°38' E 135°24'0 0.0
2014-Jul-28 02:21N 34°38' E 135°24'0 0.0
2014-Jul-28 01:27N 34°38' E 135°24'1 1.0
2014-Jul-28 00:33N 34°38' E 135°23'1312.7
2014-Jul-27 23:33N 34°30' E 135°11'1616.0
2014-Jul-27 22:32N 34°17' E 134°59'1111.3
2014-Jul-27 21:33N 34°06' E 134°60'  
2014-Jul-25 05:08N 33°48' E 130°14'813.6
2014-Jul-25 04:34N 33°40' E 130°16'7 6.9
2014-Jul-25 03:32N 33°40' E 130°25'0 0.0
2014-Jul-25 02:32N 33°40' E 130°25'0 0.0
2014-Jul-25 01:32N 33°40' E 130°25'0 0.0
2014-Jul-25 00:32N 33°40' E 130°25'0 0.0
2014-Jul-24 23:31N 33°40' E 130°25'0 0.2
2014-Jul-24 22:32N 33°39' E 130°24'6 6.4
2014-Jul-24 21:33N 33°39' E 130°17'5 5.2
2014-Jul-24 20:33N 33°44' E 130°15'5 4.6
2014-Jul-24 19:32N 33°48' E 130°11'51212.4
2014-Jul-23 02:17N 34°56' E 119°57'1013.4
2014-Jul-23 01:33N 34°51' E 119°47'1110.7
2014-Jul-23 00:33N 34°46' E 119°35'7 7.2
2014-Jul-22 23:33N 34°45' E 119°26'2 2.2
2014-Jul-22 22:33N 34°45' E 119°24'0 0.0
2014-Jul-22 21:33N 34°45' E 119°24'0 0.0
2014-Jul-22 20:33N 34°45' E 119°24'0 0.0
2014-Jul-22 19:33N 34°45' E 119°24'0 0.0
2014-Jul-22 18:33N 34°45' E 119°24'0 0.0
2014-Jul-22 17:33N 34°45' E 119°24'0 0.0
2014-Jul-22 16:33N 34°45' E 119°24'0 0.0
2014-Jul-22 15:33N 34°45' E 119°24'0 0.0
2014-Jul-22 14:33N 34°45' E 119°24'0 0.2
2014-Jul-22 13:33N 34°45' E 119°24'9 8.5
2014-Jul-22 12:33N 34°46' E 119°34'1110.2
2014-Jul-22 11:26N 34°52' E 119°46'3 1.3
2014-Jul-22 09:21N 34°54' E 119°48'0 0.2
2014-Jul-22 08:33N 34°54' E 119°48'0 0.0
2014-Jul-22 05:33N 34°54' E 119°48'0 0.0
2014-Jul-22 03:21N 34°54' E 119°48'0 0.0
2014-Jul-21 19:33N 34°54' E 119°48'0 0.0
2014-Jul-21 17:15N 34°54' E 119°48'0 0.0
2014-Jul-21 16:09N 34°54' E 119°48'0 0.0
2014-Jul-21 15:27N 34°54' E 119°48'0 0.1
2014-Jul-21 14:27N 34°54' E 119°48'0 0.0
2014-Jul-21 12:33N 34°54' E 119°48'0 0.0
2014-Jul-21 10:09N 34°54' E 119°48'0 0.0
2014-Jul-21 09:15N 34°54' E 119°48'0 0.0
2014-Jul-21 08:33N 34°54' E 119°48'0 0.0
2014-Jul-21 07:33N 34°54' E 119°48'0 0.0
2014-Jul-20 23:21N 34°54' E 119°48'0 0.0
2014-Jul-20 20:33N 34°54' E 119°48'0 0.0
2014-Jul-20 19:33N 34°54' E 119°48'  

Dump ship's entire track history